createdAt,value
2022-09-29T00:01:33.935Z,11.40
2022-09-29T00:04:03.113Z,11.40
2022-09-29T00:06:33.405Z,11.40
2022-09-29T00:09:02.079Z,11.40
2022-09-29T00:11:30.726Z,11.40
2022-09-29T00:13:59.240Z,11.40
2022-09-29T00:16:27.908Z,11.30
2022-09-29T00:18:57.339Z,11.30
2022-09-29T00:21:26.032Z,11.30
2022-09-29T00:23:55.749Z,11.30
2022-09-29T00:26:25.474Z,11.30
2022-09-29T00:28:56.425Z,11.30
2022-09-29T00:31:26.774Z,11.30
2022-09-29T00:33:55.703Z,11.30
2022-09-29T00:36:25.014Z,11.30
2022-09-29T00:38:55.126Z,11.30
2022-09-29T00:41:26.497Z,11.30
2022-09-29T00:43:58.253Z,11.30
2022-09-29T00:46:32.972Z,11.30
2022-09-29T00:49:06.714Z,11.30
2022-09-29T00:51:38.543Z,11.30
2022-09-29T00:54:09.063Z,11.30
2022-09-29T00:56:40.008Z,11.20
2022-09-29T00:59:11.037Z,11.30
2022-09-29T01:01:39.700Z,11.20
2022-09-29T01:04:12.717Z,11.20
2022-09-29T01:06:45.272Z,11.20
2022-09-29T01:09:18.510Z,11.20
2022-09-29T01:11:47.788Z,11.20
2022-09-29T01:14:17.065Z,11.10
2022-09-29T01:16:45.947Z,11.10
2022-09-29T01:19:20.378Z,11.10
2022-09-29T01:22:01.130Z,11.10
2022-09-29T01:25:02.270Z,11.10
2022-09-29T01:27:54.755Z,11.10
2022-09-29T01:30:27.689Z,11.00
2022-09-29T01:33:13.037Z,11.10
2022-09-29T01:35:53.294Z,11.00
2022-09-29T01:38:33.655Z,11.10
2022-09-29T01:41:11.684Z,11.10
2022-09-29T01:43:48.413Z,11.10
2022-09-29T01:46:23.092Z,11.10
2022-09-29T01:48:56.631Z,11.10
2022-09-29T01:51:31.359Z,11.10
2022-09-29T01:54:05.678Z,11.10
2022-09-29T01:56:39.027Z,11.10
2022-09-29T01:59:13.912Z,11.10
2022-09-29T02:01:46.025Z,11.10
2022-09-29T02:04:20.549Z,11.10
2022-09-29T02:06:55.482Z,11.10
2022-09-29T02:09:27.505Z,11.20
2022-09-29T02:11:59.247Z,11.20
2022-09-29T02:14:32.793Z,11.10
2022-09-29T02:17:07.762Z,11.20
2022-09-29T02:19:41.613Z,11.20
2022-09-29T02:22:10.628Z,11.10
2022-09-29T02:24:39.160Z,11.10
2022-09-29T02:27:08.263Z,11.10
2022-09-29T02:29:37.994Z,11.10
2022-09-29T02:32:09.993Z,11.10
2022-09-29T02:34:43.748Z,11.10
2022-09-29T02:37:26.967Z,11.10
2022-09-29T02:40:05.178Z,11.10
2022-09-29T02:42:40.640Z,11.10
2022-09-29T02:45:23.839Z,11.00
2022-09-29T02:48:06.934Z,11.00
2022-09-29T02:50:50.227Z,11.10
2022-09-29T02:53:30.072Z,11.00
2022-09-29T02:56:05.973Z,11.00
2022-09-29T02:58:39.514Z,11.00
2022-09-29T03:01:08.736Z,11.00
2022-09-29T03:03:37.258Z,11.10
2022-09-29T03:06:07.735Z,11.10
2022-09-29T03:08:36.329Z,11.00
2022-09-29T03:11:04.836Z,11.10
2022-09-29T03:13:33.280Z,11.10
2022-09-29T03:16:02.520Z,11.00
2022-09-29T03:18:31.051Z,11.00
2022-09-29T03:20:59.335Z,11.00
2022-09-29T03:23:29.344Z,11.00
2022-09-29T03:25:57.639Z,11.00
2022-09-29T03:28:25.918Z,11.00
2022-09-29T03:30:55.401Z,11.00
2022-09-29T03:33:23.971Z,11.00
2022-09-29T03:35:52.296Z,11.00
2022-09-29T03:38:21.364Z,11.00
2022-09-29T03:40:51.135Z,11.00
2022-09-29T03:43:19.604Z,10.90
2022-09-29T03:45:51.686Z,10.90
2022-09-29T03:48:21.848Z,10.90
2022-09-29T03:50:53.918Z,10.90
2022-09-29T03:53:22.409Z,10.90
2022-09-29T03:55:52.471Z,10.90
2022-09-29T03:58:21.225Z,10.90
2022-09-29T04:00:50.272Z,10.90
2022-09-29T04:03:18.943Z,11.00
2022-09-29T04:05:47.869Z,11.00
2022-09-29T04:08:17.668Z,11.00
2022-09-29T04:10:48.393Z,11.00
2022-09-29T04:13:20.250Z,11.00
2022-09-29T04:15:48.868Z,11.00
2022-09-29T04:18:17.559Z,11.00
2022-09-29T04:20:46.271Z,11.00
2022-09-29T04:23:14.691Z,11.00
2022-09-29T04:25:45.223Z,11.00
2022-09-29T04:28:14.221Z,11.00
2022-09-29T04:30:44.077Z,11.00
2022-09-29T04:33:12.438Z,11.00
2022-09-29T04:35:41.635Z,11.00
2022-09-29T04:38:10.325Z,11.00
2022-09-29T04:40:39.063Z,11.00
2022-09-29T04:43:07.705Z,11.00
2022-09-29T04:45:36.053Z,11.00
2022-09-29T04:48:06.016Z,11.00
2022-09-29T04:50:35.094Z,11.00
2022-09-29T04:53:03.440Z,11.00
2022-09-29T04:55:32.035Z,11.00
2022-09-29T04:58:00.796Z,11.00
2022-09-29T05:00:29.202Z,11.00
2022-09-29T05:02:58.467Z,10.90
2022-09-29T05:05:28.719Z,10.90
2022-09-29T05:07:59.466Z,10.90
2022-09-29T05:10:28.083Z,10.90
2022-09-29T05:12:56.444Z,10.90
2022-09-29T05:15:26.099Z,10.90
2022-09-29T05:17:54.968Z,10.80
2022-09-29T05:20:23.560Z,10.80
2022-09-29T05:22:53.445Z,10.80
2022-09-29T05:25:21.985Z,10.80
2022-09-29T05:27:50.298Z,10.80
2022-09-29T05:30:18.814Z,10.80
2022-09-29T05:32:47.621Z,10.80
2022-09-29T05:35:16.291Z,10.80
2022-09-29T05:37:44.746Z,10.80
2022-09-29T05:40:14.813Z,10.80
2022-09-29T05:42:43.192Z,10.80
2022-09-29T05:45:12.050Z,10.90
2022-09-29T05:47:44.030Z,10.90
2022-09-29T05:50:12.815Z,11.00
2022-09-29T05:52:41.337Z,11.00
2022-09-29T05:55:11.072Z,11.00
2022-09-29T05:57:41.257Z,11.00
2022-09-29T06:00:10.436Z,11.10
2022-09-29T06:02:39.110Z,11.10
2022-09-29T06:05:08.018Z,11.20
2022-09-29T06:07:36.504Z,11.20
2022-09-29T06:10:05.590Z,11.20
2022-09-29T06:12:36.950Z,11.30
2022-09-29T06:15:07.737Z,11.30
2022-09-29T06:17:36.271Z,11.40
2022-09-29T06:20:05.799Z,11.40
2022-09-29T06:22:34.832Z,11.40
2022-09-29T06:25:03.306Z,11.50
2022-09-29T06:27:32.009Z,11.60
2022-09-29T06:30:00.675Z,11.60
2022-09-29T06:32:30.897Z,11.60
2022-09-29T06:35:16.706Z,11.60
2022-09-29T06:37:46.661Z,11.70
2022-09-29T06:40:15.622Z,11.70
2022-09-29T06:42:44.010Z,11.70
2022-09-29T06:45:12.849Z,11.80
2022-09-29T06:47:42.601Z,11.80
2022-09-29T06:50:17.583Z,11.80
2022-09-29T06:53:02.779Z,11.90
2022-09-29T06:55:32.629Z,11.90
2022-09-29T06:58:04.117Z,12.00
2022-09-29T07:00:35.172Z,12.00
2022-09-29T07:03:05.324Z,12.00
2022-09-29T07:05:33.635Z,12.10
2022-09-29T07:08:03.076Z,12.10
2022-09-29T07:10:31.929Z,12.10
2022-09-29T07:13:00.364Z,12.10
2022-09-29T07:15:31.806Z,12.10
2022-09-29T07:18:01.140Z,12.10
2022-09-29T07:20:32.208Z,12.10
2022-09-29T07:23:00.874Z,12.10
2022-09-29T07:25:50.544Z,12.10
2022-09-29T07:28:18.066Z,12.20
2022-09-29T07:30:46.806Z,12.20
2022-09-29T07:33:15.314Z,12.20
2022-09-29T07:35:45.225Z,12.20
2022-09-29T07:38:13.835Z,12.20
2022-09-29T07:40:42.341Z,12.20
2022-09-29T07:43:10.738Z,12.20
2022-09-29T07:45:39.446Z,12.30
2022-09-29T07:48:07.843Z,12.30
2022-09-29T07:50:36.666Z,12.30
2022-09-29T07:53:06.545Z,12.30
2022-09-29T07:55:35.003Z,12.40
2022-09-29T07:58:03.467Z,12.40
2022-09-29T08:00:32.573Z,12.50
2022-09-29T08:03:03.431Z,12.50
2022-09-29T08:05:34.151Z,12.60
2022-09-29T08:08:04.157Z,12.70
2022-09-29T08:10:41.249Z,12.70
2022-09-29T08:13:15.666Z,12.80
2022-09-29T08:15:44.237Z,12.90
2022-09-29T08:18:12.576Z,13.00
2022-09-29T08:20:41.261Z,13.10
2022-09-29T08:23:09.592Z,13.30
2022-09-29T08:25:39.544Z,13.50
2022-09-29T08:28:12.774Z,13.70
2022-09-29T08:30:42.861Z,13.80
2022-09-29T08:33:14.784Z,13.90
2022-09-29T08:35:43.195Z,13.90
2022-09-29T08:38:12.037Z,14.00
2022-09-29T08:40:42.541Z,14.00
2022-09-29T08:43:27.640Z,14.00
2022-09-29T08:46:03.098Z,14.10
2022-09-29T08:48:36.224Z,14.20
2022-09-29T08:51:08.291Z,14.50
2022-09-29T08:53:54.460Z,14.60
2022-09-29T08:56:28.604Z,14.80
2022-09-29T08:58:58.052Z,14.90
2022-09-29T09:01:36.683Z,15.00
2022-09-29T09:04:31.084Z,15.10
2022-09-29T09:07:11.126Z,15.20
2022-09-29T09:09:56.092Z,15.20
2022-09-29T09:12:42.893Z,15.40
2022-09-29T09:15:27.112Z,15.70
2022-09-29T09:18:11.325Z,15.90
2022-09-29T09:20:45.876Z,16.00
2022-09-29T09:23:22.401Z,16.00
2022-09-29T09:25:54.935Z,16.10
2022-09-29T09:28:31.674Z,16.10
2022-09-29T09:31:05.982Z,16.10
2022-09-29T09:33:40.631Z,16.10
2022-09-29T09:36:26.941Z,16.10
2022-09-29T09:39:05.973Z,16.10
2022-09-29T09:41:38.429Z,16.20
2022-09-29T09:44:16.490Z,16.20
2022-09-29T09:46:49.707Z,16.30
2022-09-29T09:49:23.608Z,16.20
2022-09-29T09:51:59.203Z,16.10
2022-09-29T09:54:33.090Z,16.00
2022-09-29T09:57:26.555Z,15.90
2022-09-29T10:00:06.371Z,15.80
2022-09-29T10:02:35.547Z,15.80
2022-09-29T10:05:07.542Z,15.70
2022-09-29T10:07:38.161Z,15.80
2022-09-29T10:10:16.787Z,15.80
2022-09-29T10:12:46.297Z,16.00
2022-09-29T10:15:23.074Z,16.10
2022-09-29T10:18:02.378Z,16.10
2022-09-29T10:20:35.444Z,16.20
2022-09-29T10:23:27.864Z,16.20
2022-09-29T10:26:00.646Z,16.20
2022-09-29T10:28:38.359Z,16.20
2022-09-29T10:31:22.935Z,16.20
2022-09-29T10:33:56.388Z,16.10
2022-09-29T10:36:26.019Z,16.10
2022-09-29T10:38:59.569Z,16.00
2022-09-29T10:41:52.292Z,16.00
2022-09-29T10:44:22.804Z,16.00
2022-09-29T10:46:55.930Z,16.10
2022-09-29T10:49:28.125Z,16.10
2022-09-29T10:52:01.835Z,16.20
2022-09-29T10:54:34.731Z,16.30
2022-09-29T10:57:13.933Z,16.40
2022-09-29T10:59:49.304Z,16.60
2022-09-29T11:02:25.142Z,16.70
2022-09-29T11:04:57.179Z,16.70
2022-09-29T11:07:25.871Z,16.60
2022-09-29T11:09:54.982Z,16.60
2022-09-29T11:12:31.927Z,16.50
2022-09-29T11:15:01.388Z,16.60
2022-09-29T11:17:33.110Z,16.60
2022-09-29T11:20:04.010Z,16.50
2022-09-29T11:22:56.134Z,16.50
2022-09-29T11:25:39.839Z,16.50
2022-09-29T11:28:33.983Z,16.40
2022-09-29T11:31:18.795Z,16.30
2022-09-29T11:34:02.548Z,16.30
2022-09-29T11:36:39.430Z,16.30
2022-09-29T11:39:20.158Z,16.30
2022-09-29T11:42:03.814Z,16.30
2022-09-29T11:44:59.321Z,16.20
2022-09-29T11:47:45.149Z,16.20
2022-09-29T11:50:33.026Z,16.10
2022-09-29T11:53:18.825Z,16.00
2022-09-29T11:55:59.949Z,16.00
2022-09-29T11:58:47.949Z,15.90
2022-09-29T12:01:39.747Z,15.80
2022-09-29T12:04:22.714Z,15.70
2022-09-29T12:06:58.218Z,15.70
2022-09-29T12:09:48.310Z,15.70
2022-09-29T12:12:24.820Z,15.70
2022-09-29T12:15:13.311Z,15.70
2022-09-29T12:17:45.547Z,15.80
2022-09-29T12:20:20.912Z,15.90
2022-09-29T12:22:52.295Z,16.00
2022-09-29T12:25:26.007Z,16.10
2022-09-29T12:28:00.178Z,16.20
2022-09-29T12:30:30.937Z,16.40
2022-09-29T12:33:06.732Z,16.40
2022-09-29T12:35:40.038Z,16.50
2022-09-29T12:38:19.533Z,16.60
2022-09-29T12:40:59.431Z,16.70
2022-09-29T12:43:32.990Z,16.80
2022-09-29T12:46:08.729Z,16.80
2022-09-29T12:48:49.961Z,16.80
2022-09-29T12:51:25.610Z,16.70
2022-09-29T12:54:09.972Z,16.60
2022-09-29T12:56:46.130Z,16.40
2022-09-29T12:59:24.639Z,16.40
2022-09-29T13:01:56.716Z,16.20
2022-09-29T13:04:50.837Z,16.20
2022-09-29T13:07:52.760Z,16.10
2022-09-29T13:10:37.224Z,16.00
2022-09-29T13:13:26.577Z,15.80
2022-09-29T13:16:05.967Z,15.80
2022-09-29T13:19:06.614Z,15.80
2022-09-29T13:21:45.854Z,15.90
2022-09-29T13:24:36.458Z,16.00
2022-09-29T13:27:30.955Z,16.00
2022-09-29T13:30:06.643Z,15.90
2022-09-29T13:32:42.250Z,15.90
2022-09-29T13:35:19.367Z,15.80
2022-09-29T13:37:51.384Z,15.70
2022-09-29T13:40:24.536Z,15.60
2022-09-29T13:42:55.936Z,15.50
2022-09-29T13:45:44.892Z,15.50
2022-09-29T13:48:41.489Z,15.40
2022-09-29T13:51:43.343Z,15.50
2022-09-29T13:54:35.124Z,15.50
2022-09-29T13:57:29.877Z,15.60
2022-09-29T14:00:26.025Z,15.60
2022-09-29T14:03:08.987Z,15.70
2022-09-29T14:06:36.546Z,15.80
2022-09-29T14:09:05.652Z,15.80
2022-09-29T14:11:38.282Z,15.90
2022-09-29T14:14:09.714Z,15.90
2022-09-29T14:16:56.321Z,15.90
2022-09-29T14:19:44.421Z,15.80
2022-09-29T14:22:49.985Z,15.70
2022-09-29T14:25:55.925Z,15.60
2022-09-29T14:28:33.405Z,15.50
2022-09-29T14:31:04.333Z,15.30
2022-09-29T14:33:41.593Z,15.20
2022-09-29T14:36:17.244Z,15.00
2022-09-29T14:39:02.687Z,15.00
2022-09-29T14:41:42.507Z,15.00
2022-09-29T14:44:14.491Z,15.00
2022-09-29T14:47:36.622Z,14.90
2022-09-29T14:50:57.596Z,14.90
2022-09-29T14:53:47.565Z,14.80
2022-09-29T14:56:34.652Z,14.70
2022-09-29T14:59:16.578Z,14.60
2022-09-29T15:02:08.373Z,14.50
2022-09-29T15:04:40.217Z,14.50
2022-09-29T15:07:14.034Z,14.40
2022-09-29T15:09:47.428Z,14.30
2022-09-29T15:12:18.376Z,14.10
2022-09-29T15:14:46.957Z,14.00
2022-09-29T15:17:21.511Z,13.90
2022-09-29T15:20:01.320Z,13.90
2022-09-29T15:23:01.970Z,13.80
2022-09-29T15:25:32.962Z,13.70
2022-09-29T15:28:03.955Z,13.60
2022-09-29T15:30:35.018Z,13.60
2022-09-29T15:33:21.170Z,13.60
2022-09-29T15:35:55.958Z,13.50
2022-09-29T15:38:36.464Z,13.40
2022-09-29T15:41:15.014Z,13.40
2022-09-29T15:43:46.902Z,13.40
2022-09-29T15:46:20.205Z,13.40
2022-09-29T15:49:16.038Z,13.40
2022-09-29T15:51:47.963Z,13.40
2022-09-29T15:54:17.953Z,13.40
2022-09-29T15:57:05.543Z,13.40
2022-09-29T15:59:42.906Z,13.40
2022-09-29T16:02:32.496Z,13.40
2022-09-29T16:05:04.737Z,13.40
2022-09-29T16:07:38.489Z,13.30
2022-09-29T16:10:15.105Z,13.30
2022-09-29T16:12:49.824Z,13.30
2022-09-29T16:15:22.104Z,13.30
2022-09-29T16:17:51.512Z,13.30
2022-09-29T16:20:25.836Z,13.20
2022-09-29T16:22:55.396Z,13.20
2022-09-29T16:25:28.797Z,13.20
2022-09-29T16:27:59.038Z,13.10
2022-09-29T16:30:30.486Z,13.10
2022-09-29T16:33:13.499Z,13.00
2022-09-29T16:36:03.167Z,13.00
2022-09-29T16:38:36.089Z,12.90
2022-09-29T16:41:20.521Z,12.90
2022-09-29T16:43:50.309Z,12.80
2022-09-29T16:46:22.228Z,12.70
2022-09-29T16:48:51.478Z,12.70
2022-09-29T16:51:39.302Z,12.60
2022-09-29T16:54:15.369Z,12.50
2022-09-29T16:56:45.544Z,12.30
2022-09-29T16:59:17.099Z,12.30
2022-09-29T17:01:47.413Z,12.20
2022-09-29T17:04:16.200Z,12.10
2022-09-29T17:06:48.787Z,12.00
2022-09-29T17:09:21.534Z,11.90
2022-09-29T17:11:51.635Z,11.80
2022-09-29T17:14:21.676Z,11.80
2022-09-29T17:16:51.612Z,11.70
2022-09-29T17:19:22.446Z,11.60
2022-09-29T17:21:52.492Z,11.60
2022-09-29T17:24:20.943Z,11.50
2022-09-29T17:27:06.863Z,11.40
2022-09-29T17:29:37.585Z,11.40
2022-09-29T17:32:13.231Z,11.40
2022-09-29T17:34:41.782Z,11.30
2022-09-29T17:37:11.164Z,11.30
2022-09-29T17:39:40.054Z,11.30
2022-09-29T17:42:08.841Z,11.30
2022-09-29T17:44:40.833Z,11.20
2022-09-29T17:47:24.162Z,11.20
2022-09-29T17:49:56.176Z,11.10
2022-09-29T17:52:25.656Z,11.10
2022-09-29T17:54:54.169Z,11.10
2022-09-29T17:57:28.519Z,11.10
2022-09-29T18:00:00.680Z,11.00
2022-09-29T18:02:29.799Z,11.00
2022-09-29T18:04:58.373Z,11.00
2022-09-29T18:07:26.843Z,10.90
2022-09-29T18:09:55.570Z,10.90
2022-09-29T18:12:24.052Z,10.90
2022-09-29T18:14:52.542Z,10.90
2022-09-29T18:17:22.429Z,10.90
2022-09-29T18:19:50.837Z,10.90
2022-09-29T18:22:19.605Z,10.80
2022-09-29T18:24:49.577Z,10.80
2022-09-29T18:27:17.920Z,10.80
2022-09-29T18:29:46.296Z,10.70
2022-09-29T18:32:19.911Z,10.60
2022-09-29T18:34:49.901Z,10.50
2022-09-29T18:37:18.499Z,10.40
2022-09-29T18:39:46.936Z,10.30
2022-09-29T18:42:15.612Z,10.20
2022-09-29T18:44:44.528Z,10.10
2022-09-29T18:47:13.580Z,10.10
2022-09-29T18:49:41.859Z,10.00
2022-09-29T18:52:12.390Z,9.90
2022-09-29T18:54:40.844Z,9.80
2022-09-29T18:57:13.823Z,9.70
2022-09-29T18:59:42.816Z,9.70
2022-09-29T19:02:14.655Z,9.60
2022-09-29T19:04:43.518Z,9.50
2022-09-29T19:07:14.292Z,9.50
2022-09-29T19:09:42.810Z,9.40
2022-09-29T19:12:11.674Z,9.40
2022-09-29T19:14:41.836Z,9.30
2022-09-29T19:17:11.518Z,9.30
2022-09-29T19:19:40.021Z,9.20
2022-09-29T19:22:12.468Z,9.20
2022-09-29T19:24:42.338Z,9.10
2022-09-29T19:27:10.832Z,9.10
2022-09-29T19:29:39.250Z,9.00
2022-09-29T19:32:07.797Z,9.00
2022-09-29T19:34:36.994Z,8.90
2022-09-29T19:37:05.975Z,8.90
2022-09-29T19:39:34.665Z,8.90
2022-09-29T19:42:04.622Z,8.90
2022-09-29T19:44:33.031Z,9.00
2022-09-29T19:47:01.577Z,9.10
2022-09-29T19:49:30.203Z,9.30
2022-09-29T19:51:57.879Z,9.40
2022-09-29T19:54:29.056Z,9.60
2022-09-29T19:56:59.888Z,9.70
2022-09-29T19:59:32.240Z,9.80
2022-09-29T20:02:01.595Z,9.90
2022-09-29T20:04:32.357Z,10.00
2022-09-29T20:07:01.911Z,10.00
2022-09-29T20:09:31.481Z,10.10
2022-09-29T20:12:00.570Z,10.10
2022-09-29T20:14:32.321Z,10.20
2022-09-29T20:17:00.920Z,10.20
2022-09-29T20:19:31.300Z,10.30
2022-09-29T20:21:59.596Z,10.30
2022-09-29T20:24:28.882Z,10.30
2022-09-29T20:26:57.984Z,10.40
2022-09-29T20:29:27.191Z,10.30
2022-09-29T20:31:57.260Z,10.40
2022-09-29T20:34:25.805Z,10.40
2022-09-29T20:36:55.252Z,10.40
2022-09-29T20:39:25.923Z,10.40
2022-09-29T20:41:55.257Z,10.40
2022-09-29T20:44:25.823Z,10.40
2022-09-29T20:46:57.147Z,10.30
2022-09-29T20:49:27.006Z,10.30
2022-09-29T20:51:55.750Z,10.30
2022-09-29T20:54:24.398Z,10.30
2022-09-29T20:56:53.763Z,10.30
2022-09-29T20:59:24.193Z,10.30
2022-09-29T21:01:53.989Z,10.20
2022-09-29T21:04:25.407Z,10.30
2022-09-29T21:06:54.264Z,10.20
2022-09-29T21:09:24.731Z,10.10
2022-09-29T21:11:55.683Z,10.10
2022-09-29T21:14:26.656Z,10.10
2022-09-29T21:16:55.666Z,10.00
2022-09-29T21:19:27.319Z,10.00
2022-09-29T21:21:57.136Z,9.90
2022-09-29T21:24:26.461Z,9.90
2022-09-29T21:26:56.304Z,9.90
2022-09-29T21:29:24.943Z,9.90
2022-09-29T21:31:53.847Z,9.90
2022-09-29T21:34:22.792Z,9.90
2022-09-29T21:36:53.015Z,9.90
2022-09-29T21:39:21.907Z,9.90
2022-09-29T21:41:50.689Z,9.90
2022-09-29T21:44:23.257Z,9.90
2022-09-29T21:46:52.160Z,9.90
2022-09-29T21:49:22.328Z,9.90
2022-09-29T21:51:53.114Z,9.80
2022-09-29T21:54:24.851Z,9.80
2022-09-29T21:56:54.120Z,9.80
2022-09-29T21:59:24.192Z,9.80
2022-09-29T22:01:53.236Z,9.70
2022-09-29T22:04:23.214Z,9.70
2022-09-29T22:06:53.831Z,9.70
2022-09-29T22:09:22.871Z,9.70
2022-09-29T22:11:51.797Z,9.70
2022-09-29T22:14:24.046Z,9.60
2022-09-29T22:16:52.586Z,9.60
2022-09-29T22:19:24.134Z,9.60
2022-09-29T22:21:55.430Z,9.50
2022-09-29T22:24:26.757Z,9.50
2022-09-29T22:26:55.877Z,9.40
2022-09-29T22:29:24.742Z,9.40
2022-09-29T22:31:53.689Z,9.30
2022-09-29T22:34:22.451Z,9.30
2022-09-29T22:36:51.324Z,9.30
2022-09-29T22:39:21.483Z,9.20
2022-09-29T22:41:52.603Z,9.20
2022-09-29T22:44:21.442Z,9.10
2022-09-29T22:46:49.976Z,9.10
2022-09-29T22:49:18.543Z,9.00
2022-09-29T22:51:47.083Z,9.00
2022-09-29T22:54:15.845Z,9.00
2022-09-29T22:56:47.353Z,8.90
2022-09-29T22:59:16.181Z,8.90
2022-09-29T23:01:44.457Z,8.90
2022-09-29T23:04:13.721Z,8.90
2022-09-29T23:06:42.492Z,8.80
2022-09-29T23:09:11.575Z,8.80
2022-09-29T23:11:41.863Z,8.80
2022-09-29T23:14:12.673Z,8.70
2022-09-29T23:16:41.027Z,8.70
2022-09-29T23:19:12.105Z,8.70
2022-09-29T23:21:40.820Z,8.60
2022-09-29T23:24:09.700Z,8.70
2022-09-29T23:26:38.099Z,8.60
2022-09-29T23:29:07.791Z,8.60
2022-09-29T23:31:38.154Z,8.60
2022-09-29T23:34:06.581Z,8.60
2022-09-29T23:36:35.181Z,8.60
2022-09-29T23:39:13.564Z,8.70
2022-09-29T23:41:44.719Z,8.70
2022-09-29T23:44:15.575Z,8.80
2022-09-29T23:46:46.343Z,8.80
2022-09-29T23:49:18.043Z,8.90
2022-09-29T23:51:48.448Z,8.90
2022-09-29T23:54:19.162Z,9.10
2022-09-29T23:56:48.998Z,9.00
2022-09-29T23:59:18.053Z,9.10
